sensor_id;sensor_type;location;lat;lon;timestamp;pressure;altitude;pressure_sealevel;temperature
24278;BMP280;12394;42.692;23.314;2023-03-15T00:00:18;94027.81;;;7.79
24278;BMP280;12394;42.692;23.314;2023-03-15T00:02:43;94030.41;;;7.79
24278;BMP280;12394;42.692;23.314;2023-03-15T00:05:10;94030.75;;;7.81
24278;BMP280;12394;42.692;23.314;2023-03-15T00:07:37;94026.97;;;7.89
24278;BMP280;12394;42.692;23.314;2023-03-15T00:10:03;94019.59;;;7.84
24278;BMP280;12394;42.692;23.314;2023-03-15T00:12:29;94024.03;;;7.84
24278;BMP280;12394;42.692;23.314;2023-03-15T00:14:54;94025.13;;;7.86
24278;BMP280;12394;42.692;23.314;2023-03-15T00:17:19;94022.56;;;7.83
24278;BMP280;12394;42.692;23.314;2023-03-15T00:19:47;94033.03;;;7.79
24278;BMP280;12394;42.692;23.314;2023-03-15T00:22:12;94033.75;;;7.80
24278;BMP280;12394;42.692;23.314;2023-03-15T00:24:38;94018.72;;;7.60
24278;BMP280;12394;42.692;23.314;2023-03-15T00:27:03;94029.44;;;7.66
24278;BMP280;12394;42.692;23.314;2023-03-15T00:29:30;93986.56;;;7.44
24278;BMP280;12394;42.692;23.314;2023-03-15T00:31:55;94016.06;;;7.64
24278;BMP280;12394;42.692;23.314;2023-03-15T00:34:21;94007.88;;;7.66
24278;BMP280;12394;42.692;23.314;2023-03-15T00:36:50;94011.56;;;7.68
24278;BMP280;12394;42.692;23.314;2023-03-15T00:39:18;94007.84;;;7.69
24278;BMP280;12394;42.692;23.314;2023-03-15T00:41:43;93997.38;;;7.73
24278;BMP280;12394;42.692;23.314;2023-03-15T00:44:10;94006.34;;;7.68
24278;BMP280;12394;42.692;23.314;2023-03-15T00:46:35;94003.00;;;7.71
24278;BMP280;12394;42.692;23.314;2023-03-15T00:49:01;94010.53;;;7.62
24278;BMP280;12394;42.692;23.314;2023-03-15T00:51:26;94014.72;;;7.52
24278;BMP280;12394;42.692;23.314;2023-03-15T00:53:52;93964.16;;;7.20
24278;BMP280;12394;42.692;23.314;2023-03-15T00:56:23;93992.91;;;7.43
24278;BMP280;12394;42.692;23.314;2023-03-15T00:58:49;93987.28;;;7.48
24278;BMP280;12394;42.692;23.314;2023-03-15T01:01:25;93995.06;;;7.48
24278;BMP280;12394;42.692;23.314;2023-03-15T01:03:51;93975.44;;;7.43
24278;BMP280;12394;42.692;23.314;2023-03-15T01:06:19;93968.78;;;7.39
24278;BMP280;12394;42.692;23.314;2023-03-15T01:08:45;93978.34;;;7.49
24278;BMP280;12394;42.692;23.314;2023-03-15T01:11:13;93979.09;;;7.49
24278;BMP280;12394;42.692;23.314;2023-03-15T01:13:40;93971.22;;;7.53
24278;BMP280;12394;42.692;23.314;2023-03-15T01:16:07;93972.41;;;7.48
24278;BMP280;12394;42.692;23.314;2023-03-15T01:18:33;93973.75;;;7.60
24278;BMP280;12394;42.692;23.314;2023-03-15T01:20:58;93970.91;;;7.47
24278;BMP280;12394;42.692;23.314;2023-03-15T01:23:24;93967.94;;;7.45
24278;BMP280;12394;42.692;23.314;2023-03-15T01:25:50;93957.94;;;7.44
24278;BMP280;12394;42.692;23.314;2023-03-15T01:28:15;93949.47;;;7.36
24278;BMP280;12394;42.692;23.314;2023-03-15T01:30:48;93955.34;;;7.44
24278;BMP280;12394;42.692;23.314;2023-03-15T01:33:14;93939.47;;;7.35
24278;BMP280;12394;42.692;23.314;2023-03-15T01:35:39;93954.59;;;7.43
24278;BMP280;12394;42.692;23.314;2023-03-15T01:38:04;93956.84;;;7.45
24278;BMP280;12394;42.692;23.314;2023-03-15T01:40:30;93956.44;;;7.46
24278;BMP280;12394;42.692;23.314;2023-03-15T01:45:53;93937.44;;;7.49
24278;BMP280;12394;42.692;23.314;2023-03-15T01:48:23;93943.78;;;7.48
24278;BMP280;12394;42.692;23.314;2023-03-15T01:50:52;93941.56;;;7.47
24278;BMP280;12394;42.692;23.314;2023-03-15T01:53:21;93933.00;;;7.46
24278;BMP280;12394;42.692;23.314;2023-03-15T01:55:47;93930.06;;;7.44
24278;BMP280;12394;42.692;23.314;2023-03-15T01:58:13;93920.78;;;7.43
24278;BMP280;12394;42.692;23.314;2023-03-15T02:00:39;93930.06;;;7.44
24278;BMP280;12394;42.692;23.314;2023-03-15T02:03:15;93923.38;;;7.43
24278;BMP280;12394;42.692;23.314;2023-03-15T02:05:46;93911.53;;;7.39
24278;BMP280;12394;42.692;23.314;2023-03-15T02:08:14;93913.72;;;7.44
24278;BMP280;12394;42.692;23.314;2023-03-15T02:10:50;93906.25;;;7.46
24278;BMP280;12394;42.692;23.314;2023-03-15T02:13:18;93912.25;;;7.43
24278;BMP280;12394;42.692;23.314;2023-03-15T02:15:47;93906.28;;;7.42
24278;BMP280;12394;42.692;23.314;2023-03-15T02:18:13;93883.41;;;7.30
24278;BMP280;12394;42.692;23.314;2023-03-15T02:23:19;93883.00;;;7.32
24278;BMP280;12394;42.692;23.314;2023-03-15T02:28:35;93892.72;;;7.28
24278;BMP280;12394;42.692;23.314;2023-03-15T02:31:01;93884.31;;;7.17
24278;BMP280;12394;42.692;23.314;2023-03-15T02:33:29;93893.22;;;7.15
24278;BMP280;12394;42.692;23.314;2023-03-15T02:36:07;93894.50;;;7.00
24278;BMP280;12394;42.692;23.314;2023-03-15T02:38:32;93885.25;;;6.99
24278;BMP280;12394;42.692;23.314;2023-03-15T02:40:58;93898.94;;;7.03
24278;BMP280;12394;42.692;23.314;2023-03-15T02:43:25;93890.78;;;7.01
24278;BMP280;12394;42.692;23.314;2023-03-15T02:45:52;93883.78;;;6.98
24278;BMP280;12394;42.692;23.314;2023-03-15T02:48:19;93884.84;;;7.01
24278;BMP280;12394;42.692;23.314;2023-03-15T02:50:44;93884.38;;;7.09
24278;BMP280;12394;42.692;23.314;2023-03-15T02:53:10;93875.81;;;7.12
24278;BMP280;12394;42.692;23.314;2023-03-15T02:55:36;93879.53;;;7.11
24278;BMP280;12394;42.692;23.314;2023-03-15T02:58:02;93869.66;;;6.99
24278;BMP280;12394;42.692;23.314;2023-03-15T03:02:59;93874.66;;;7.13
24278;BMP280;12394;42.692;23.314;2023-03-15T03:05:24;93870.81;;;6.95
24278;BMP280;12394;42.692;23.314;2023-03-15T03:07:50;93873.97;;;7.09
24278;BMP280;12394;42.692;23.314;2023-03-15T03:10:17;93867.00;;;7.03
24278;BMP280;12394;42.692;23.314;2023-03-15T03:12:43;93861.22;;;6.88
24278;BMP280;12394;42.692;23.314;2023-03-15T03:15:09;93853.47;;;6.85
24278;BMP280;12394;42.692;23.314;2023-03-15T03:17:34;93852.03;;;6.80
24278;BMP280;12394;42.692;23.314;2023-03-15T03:20:07;93853.66;;;6.67
24278;BMP280;12394;42.692;23.314;2023-03-15T03:22:34;93808.31;;;6.34
24278;BMP280;12394;42.692;23.314;2023-03-15T03:25:00;93862.91;;;6.68
24278;BMP280;12394;42.692;23.314;2023-03-15T03:27:25;93854.69;;;6.73
24278;BMP280;12394;42.692;23.314;2023-03-15T03:29:50;93845.34;;;6.79
24278;BMP280;12394;42.692;23.314;2023-03-15T03:32:16;93847.66;;;6.70
24278;BMP280;12394;42.692;23.314;2023-03-15T03:34:41;93848.31;;;6.78
24278;BMP280;12394;42.692;23.314;2023-03-15T03:37:21;93847.94;;;6.79
24278;BMP280;12394;42.692;23.314;2023-03-15T03:39:46;93836.75;;;6.82
24278;BMP280;12394;42.692;23.314;2023-03-15T03:42:12;93835.97;;;6.89
24278;BMP280;12394;42.692;23.314;2023-03-15T03:44:38;93830.34;;;6.94
24278;BMP280;12394;42.692;23.314;2023-03-15T03:47:04;93829.56;;;6.97
24278;BMP280;12394;42.692;23.314;2023-03-15T03:49:29;93825.78;;;7.01
24278;BMP280;12394;42.692;23.314;2023-03-15T03:51:55;93831.03;;;6.98
24278;BMP280;12394;42.692;23.314;2023-03-15T03:54:20;93842.56;;;6.97
24278;BMP280;12394;42.692;23.314;2023-03-15T03:56:46;93828.75;;;7.03
24278;BMP280;12394;42.692;23.314;2023-03-15T03:59:12;93823.50;;;7.07
24278;BMP280;12394;42.692;23.314;2023-03-15T04:01:38;93806.53;;;6.95
24278;BMP280;12394;42.692;23.314;2023-03-15T04:04:03;93822.59;;;7.21
24278;BMP280;12394;42.692;23.314;2023-03-15T04:06:29;93815.31;;;7.08
24278;BMP280;12394;42.692;23.314;2023-03-15T04:08:55;93796.66;;;7.13
24278;BMP280;12394;42.692;23.314;2023-03-15T04:11:21;93788.00;;;6.93
24278;BMP280;12394;42.692;23.314;2023-03-15T04:13:51;93805.44;;;7.23
24278;BMP280;12394;42.692;23.314;2023-03-15T04:16:16;93817.13;;;7.11
24278;BMP280;12394;42.692;23.314;2023-03-15T04:18:42;93804.19;;;7.04
24278;BMP280;12394;42.692;23.314;2023-03-15T04:21:07;93808.84;;;7.20
24278;BMP280;12394;42.692;23.314;2023-03-15T04:23:35;93817.13;;;7.11
24278;BMP280;12394;42.692;23.314;2023-03-15T04:26:01;93812.50;;;6.92
24278;BMP280;12394;42.692;23.314;2023-03-15T04:28:28;93798.44;;;6.90
24278;BMP280;12394;42.692;23.314;2023-03-15T04:30:54;93808.16;;;6.86
24278;BMP280;12394;42.692;23.314;2023-03-15T04:33:23;93808.25;;;6.75
24278;BMP280;12394;42.692;23.314;2023-03-15T04:35:49;93804.88;;;6.78
24278;BMP280;12394;42.692;23.314;2023-03-15T04:38:16;93797.50;;;6.73
24278;BMP280;12394;42.692;23.314;2023-03-15T04:40:42;93795.19;;;6.82
24278;BMP280;12394;42.692;23.314;2023-03-15T04:43:07;93805.56;;;6.86
24278;BMP280;12394;42.692;23.314;2023-03-15T04:45:33;93793.38;;;6.79
24278;BMP280;12394;42.692;23.314;2023-03-15T04:47:59;93804.81;;;6.85
24278;BMP280;12394;42.692;23.314;2023-03-15T04:50:25;93802.59;;;6.84
24278;BMP280;12394;42.692;23.314;2023-03-15T04:52:51;93798.09;;;6.88
24278;BMP280;12394;42.692;23.314;2023-03-15T04:55:17;93798.72;;;6.99
24278;BMP280;12394;42.692;23.314;2023-03-15T04:57:42;93805.78;;;6.98
24278;BMP280;12394;42.692;23.314;2023-03-15T05:00:09;93801.00;;;6.93
24278;BMP280;12394;42.692;23.314;2023-03-15T05:02:36;93806.47;;;7.02
24278;BMP280;12394;42.692;23.314;2023-03-15T05:05:10;93794.69;;;6.94
24278;BMP280;12394;42.692;23.314;2023-03-15T05:07:36;93795.38;;;6.98
24278;BMP280;12394;42.692;23.314;2023-03-15T05:10:03;93803.06;;;7.05
24278;BMP280;12394;42.692;23.314;2023-03-15T05:12:29;93811.03;;;6.95
24278;BMP280;12394;42.692;23.314;2023-03-15T05:14:54;93809.09;;;6.99
24278;BMP280;12394;42.692;23.314;2023-03-15T05:17:20;93799.63;;;6.85
24278;BMP280;12394;42.692;23.314;2023-03-15T05:19:47;93808.56;;;6.81
24278;BMP280;12394;42.692;23.314;2023-03-15T05:22:12;93792.25;;;6.80
24278;BMP280;12394;42.692;23.314;2023-03-15T05:24:38;93806.53;;;6.95
24278;BMP280;12394;42.692;23.314;2023-03-15T05:27:03;93803.50;;;7.00
24278;BMP280;12394;42.692;23.314;2023-03-15T05:29:29;93797.03;;;6.82
24278;BMP280;12394;42.692;23.314;2023-03-15T05:31:55;93797.97;;;6.98
24278;BMP280;12394;42.692;23.314;2023-03-15T05:34:20;93795.06;;;6.93
24278;BMP280;12394;42.692;23.314;2023-03-15T05:36:51;93798.41;;;6.93
24278;BMP280;12394;42.692;23.314;2023-03-15T05:39:17;93790.91;;;6.99
24278;BMP280;12394;42.692;23.314;2023-03-15T05:41:42;93792.19;;;7.14
24278;BMP280;12394;42.692;23.314;2023-03-15T05:44:08;93801.09;;;7.17
24278;BMP280;12394;42.692;23.314;2023-03-15T05:46:33;93791.44;;;7.13
24278;BMP280;12394;42.692;23.314;2023-03-15T05:48:59;93795.63;;;7.07
24278;BMP280;12394;42.692;23.314;2023-03-15T05:51:25;93777.56;;;6.97
24278;BMP280;12394;42.692;23.314;2023-03-15T05:53:50;93789.06;;;7.26
24278;BMP280;12394;42.692;23.314;2023-03-15T05:56:16;93784.63;;;7.27
24278;BMP280;12394;42.692;23.314;2023-03-15T05:58:41;93790.41;;;7.38
24278;BMP280;12394;42.692;23.314;2023-03-15T06:01:06;93781.31;;;7.49
24278;BMP280;12394;42.692;23.314;2023-03-15T06:03:32;93781.16;;;7.60
24278;BMP280;12394;42.692;23.314;2023-03-15T06:05:58;93785.44;;;7.47
24278;BMP280;12394;42.692;23.314;2023-03-15T06:08:24;93774.69;;;7.45
24278;BMP280;12394;42.692;23.314;2023-03-15T06:10:49;93785.19;;;7.88
24278;BMP280;12394;42.692;23.314;2023-03-15T06:13:15;93790.91;;;8.02
24278;BMP280;12394;42.692;23.314;2023-03-15T06:15:40;93783.88;;;8.23
24278;BMP280;12394;42.692;23.314;2023-03-15T06:18:06;93788.75;;;8.44
24278;BMP280;12394;42.692;23.314;2023-03-15T06:20:32;93791.78;;;8.62
24278;BMP280;12394;42.692;23.314;2023-03-15T06:22:58;93792.84;;;8.84
24278;BMP280;12394;42.692;23.314;2023-03-15T06:25:23;93797.66;;;9.06
24278;BMP280;12394;42.692;23.314;2023-03-15T06:27:48;93802.09;;;9.25
24278;BMP280;12394;42.692;23.314;2023-03-15T06:30:14;93800.19;;;9.45
24278;BMP280;12394;42.692;23.314;2023-03-15T06:32:39;93801.06;;;9.38
24278;BMP280;12394;42.692;23.314;2023-03-15T06:35:05;93793.81;;;9.30
24278;BMP280;12394;42.692;23.314;2023-03-15T06:37:31;93791.38;;;9.55
24278;BMP280;12394;42.692;23.314;2023-03-15T06:39:56;93778.84;;;9.66
24278;BMP280;12394;42.692;23.314;2023-03-15T06:42:22;93788.16;;;9.83
24278;BMP280;12394;42.692;23.314;2023-03-15T06:44:47;93794.50;;;9.82
24278;BMP280;12394;42.692;23.314;2023-03-15T06:47:12;93777.19;;;10.05
24278;BMP280;12394;42.692;23.314;2023-03-15T06:49:38;93781.34;;;10.35
24278;BMP280;12394;42.692;23.314;2023-03-15T06:52:04;93771.00;;;10.31
24278;BMP280;12394;42.692;23.314;2023-03-15T06:54:30;93782.03;;;10.51
24278;BMP280;12394;42.692;23.314;2023-03-15T06:56:56;93794.06;;;10.90
24278;BMP280;12394;42.692;23.314;2023-03-15T06:59:22;93772.94;;;10.85
24278;BMP280;12394;42.692;23.314;2023-03-15T07:01:48;93772.56;;;10.99
24278;BMP280;12394;42.692;23.314;2023-03-15T07:04:13;93774.97;;;11.19
24278;BMP280;12394;42.692;23.314;2023-03-15T07:06:39;93770.28;;;11.26
24278;BMP280;12394;42.692;23.314;2023-03-15T07:09:05;93781.19;;;11.37
24278;BMP280;12394;42.692;23.314;2023-03-15T07:11:31;93772.63;;;11.75
24278;BMP280;12394;42.692;23.314;2023-03-15T07:13:56;93780.16;;;12.54
24278;BMP280;12394;42.692;23.314;2023-03-15T07:16:24;93773.25;;;13.34
24278;BMP280;12394;42.692;23.314;2023-03-15T07:18:49;93771.06;;;13.73
24278;BMP280;12394;42.692;23.314;2023-03-15T07:21:15;93772.22;;;13.72
24278;BMP280;12394;42.692;23.314;2023-03-15T07:23:40;93770.72;;;14.11
24278;BMP280;12394;42.692;23.314;2023-03-15T07:26:06;93786.72;;;14.71
24278;BMP280;12394;42.692;23.314;2023-03-15T07:28:31;93796.34;;;14.83
24278;BMP280;12394;42.692;23.314;2023-03-15T07:31:04;93779.47;;;15.68
24278;BMP280;12394;42.692;23.314;2023-03-15T07:33:31;93766.81;;;16.05
24278;BMP280;12394;42.692;23.314;2023-03-15T07:36:00;93770.25;;;17.26
24278;BMP280;12394;42.692;23.314;2023-03-15T07:38:28;93770.69;;;17.54
24278;BMP280;12394;42.692;23.314;2023-03-15T07:40:55;93777.91;;;17.68
24278;BMP280;12394;42.692;23.314;2023-03-15T07:43:21;93777.88;;;17.83
24278;BMP280;12394;42.692;23.314;2023-03-15T07:45:47;93780.22;;;17.81
24278;BMP280;12394;42.692;23.314;2023-03-15T07:48:13;93783.88;;;18.39
24278;BMP280;12394;42.692;23.314;2023-03-15T07:50:38;93775.97;;;19.36
24278;BMP280;12394;42.692;23.314;2023-03-15T07:53:05;93769.19;;;19.98
24278;BMP280;12394;42.692;23.314;2023-03-15T07:55:32;93753.69;;;20.33
24278;BMP280;12394;42.692;23.314;2023-03-15T07:57:57;93760.38;;;20.94
24278;BMP280;12394;42.692;23.314;2023-03-15T08:00:23;93764.66;;;20.58
24278;BMP280;12394;42.692;23.314;2023-03-15T08:02:48;93773.53;;;20.01
24278;BMP280;12394;42.692;23.314;2023-03-15T08:05:14;93759.63;;;19.75
24278;BMP280;12394;42.692;23.314;2023-03-15T08:07:46;93759.06;;;20.56
24278;BMP280;12394;42.692;23.314;2023-03-15T08:10:12;93760.50;;;20.51
24278;BMP280;12394;42.692;23.314;2023-03-15T08:12:38;93758.41;;;20.18
24278;BMP280;12394;42.692;23.314;2023-03-15T08:15:24;93740.13;;;19.83
24278;BMP280;12394;42.692;23.314;2023-03-15T08:17:49;93744.22;;;19.16
24278;BMP280;12394;42.692;23.314;2023-03-15T08:20:15;93740.00;;;18.32
24278;BMP280;12394;42.692;23.314;2023-03-15T08:22:48;93732.84;;;18.58
24278;BMP280;12394;42.692;23.314;2023-03-15T08:25:34;93735.81;;;20.34
24278;BMP280;12394;42.692;23.314;2023-03-15T08:28:01;93719.31;;;21.22
24278;BMP280;12394;42.692;23.314;2023-03-15T08:30:26;93735.47;;;22.02
24278;BMP280;12394;42.692;23.314;2023-03-15T08:32:52;93730.41;;;21.93
24278;BMP280;12394;42.692;23.314;2023-03-15T08:35:18;93725.31;;;20.90
24278;BMP280;12394;42.692;23.314;2023-03-15T08:37:45;93728.34;;;20.38
24278;BMP280;12394;42.692;23.314;2023-03-15T08:40:18;93736.03;;;19.82
24278;BMP280;12394;42.692;23.314;2023-03-15T08:42:51;93728.97;;;19.74
24278;BMP280;12394;42.692;23.314;2023-03-15T08:45:17;93726.59;;;21.39
24278;BMP280;12394;42.692;23.314;2023-03-15T08:47:43;93723.59;;;21.81
24278;BMP280;12394;42.692;23.314;2023-03-15T08:50:11;93716.63;;;23.29
24278;BMP280;12394;42.692;23.314;2023-03-15T08:52:37;93726.53;;;24.55
24278;BMP280;12394;42.692;23.314;2023-03-15T08:55:03;93726.25;;;23.67
24278;BMP280;12394;42.692;23.314;2023-03-15T08:57:30;93728.75;;;21.35
24278;BMP280;12394;42.692;23.314;2023-03-15T09:00:00;93734.44;;;20.02
24278;BMP280;12394;42.692;23.314;2023-03-15T09:02:36;93739.50;;;19.00
24278;BMP280;12394;42.692;23.314;2023-03-15T09:05:02;93731.53;;;18.28
24278;BMP280;12394;42.692;23.314;2023-03-15T09:07:31;93733.91;;;18.06
24278;BMP280;12394;42.692;23.314;2023-03-15T09:09:56;93725.94;;;18.46
24278;BMP280;12394;42.692;23.314;2023-03-15T09:12:22;93727.97;;;19.03
24278;BMP280;12394;42.692;23.314;2023-03-15T09:14:47;93686.19;;;17.80
24278;BMP280;12394;42.692;23.314;2023-03-15T09:17:12;93725.06;;;17.39
24278;BMP280;12394;42.692;23.314;2023-03-15T09:19:38;93725.81;;;16.96
24278;BMP280;12394;42.692;23.314;2023-03-15T09:22:04;93733.13;;;16.48
24278;BMP280;12394;42.692;23.314;2023-03-15T09:24:30;93729.66;;;16.18
24278;BMP280;12394;42.692;23.314;2023-03-15T09:26:55;93727.69;;;16.27
24278;BMP280;12394;42.692;23.314;2023-03-15T09:29:21;93724.59;;;15.57
24278;BMP280;12394;42.692;23.314;2023-03-15T09:31:46;93720.16;;;15.31
24278;BMP280;12394;42.692;23.314;2023-03-15T09:34:12;93723.41;;;15.26
24278;BMP280;12394;42.692;23.314;2023-03-15T09:36:37;93715.75;;;15.28
24278;BMP280;12394;42.692;23.314;2023-03-15T09:39:03;93714.88;;;15.31
24278;BMP280;12394;42.692;23.314;2023-03-15T09:41:42;93708.66;;;15.99
24278;BMP280;12394;42.692;23.314;2023-03-15T09:44:15;93709.22;;;17.24
24278;BMP280;12394;42.692;23.314;2023-03-15T09:52:34;93700.41;;;16.45
24278;BMP280;12394;42.692;23.314;2023-03-15T09:55:19;93680.22;;;16.42
24278;BMP280;12394;42.692;23.314;2023-03-15T09:57:50;93688.34;;;16.15
24278;BMP280;12394;42.692;23.314;2023-03-15T10:00:21;93695.72;;;15.87
24278;BMP280;12394;42.692;23.314;2023-03-15T10:02:55;93686.03;;;15.27
24278;BMP280;12394;42.692;23.314;2023-03-15T10:05:27;93694.50;;;14.98
24278;BMP280;12394;42.692;23.314;2023-03-15T10:07:56;93697.50;;;14.55
24278;BMP280;12394;42.692;23.314;2023-03-15T10:10:26;93699.44;;;14.36
24278;BMP280;12394;42.692;23.314;2023-03-15T10:13:15;93705.22;;;13.95
24278;BMP280;12394;42.692;23.314;2023-03-15T10:16:10;93702.59;;;14.04
24278;BMP280;12394;42.692;23.314;2023-03-15T10:21:56;93701.03;;;14.34
24278;BMP280;12394;42.692;23.314;2023-03-15T10:24:33;93697.25;;;14.53
24278;BMP280;12394;42.692;23.314;2023-03-15T10:27:12;93699.84;;;14.35
24278;BMP280;12394;42.692;23.314;2023-03-15T10:29:38;93694.59;;;14.25
24278;BMP280;12394;42.692;23.314;2023-03-15T10:32:05;93682.03;;;14.20
24278;BMP280;12394;42.692;23.314;2023-03-15T10:34:33;93686.13;;;14.21
24278;BMP280;12394;42.692;23.314;2023-03-15T10:36:59;93678.94;;;14.22
24278;BMP280;12394;42.692;23.314;2023-03-15T10:39:24;93697.66;;;14.24
24278;BMP280;12394;42.692;23.314;2023-03-15T10:41:50;93693.13;;;14.06
24278;BMP280;12394;42.692;23.314;2023-03-15T10:46:41;93695.03;;;13.97
24278;BMP280;12394;42.692;23.314;2023-03-15T10:49:11;93698.81;;;13.96
24278;BMP280;12394;42.692;23.314;2023-03-15T10:51:46;93685.22;;;13.79
24278;BMP280;12394;42.692;23.314;2023-03-15T10:54:21;93680.97;;;13.72
24278;BMP280;12394;42.692;23.314;2023-03-15T10:57:12;93683.44;;;13.58
24278;BMP280;12394;42.692;23.314;2023-03-15T11:00:03;93698.75;;;13.59
24278;BMP280;12394;42.692;23.314;2023-03-15T11:02:34;93688.34;;;13.47
24278;BMP280;12394;42.692;23.314;2023-03-15T11:07:36;93678.00;;;13.43
24278;BMP280;12394;42.692;23.314;2023-03-15T11:10:04;93678.97;;;13.27
24278;BMP280;12394;42.692;23.314;2023-03-15T11:12:32;93675.31;;;13.25
24278;BMP280;12394;42.692;23.314;2023-03-15T11:15:04;93675.19;;;13.38
24278;BMP280;12394;42.692;23.314;2023-03-15T11:17:34;93674.03;;;13.39
24278;BMP280;12394;42.692;23.314;2023-03-15T11:23:25;93655.53;;;13.51
24278;BMP280;12394;42.692;23.314;2023-03-15T11:25:52;93676.88;;;13.71
24278;BMP280;12394;42.692;23.314;2023-03-15T11:28:20;93673.22;;;13.78
24278;BMP280;12394;42.692;23.314;2023-03-15T11:30:47;93677.75;;;13.68
24278;BMP280;12394;42.692;23.314;2023-03-15T11:35:50;93674.81;;;13.57
24278;BMP280;12394;42.692;23.314;2023-03-15T11:40:50;93662.56;;;13.81
24278;BMP280;12394;42.692;23.314;2023-03-15T11:43:46;93662.72;;;13.78
24278;BMP280;12394;42.692;23.314;2023-03-15T11:46:20;93673.81;;;13.82
24278;BMP280;12394;42.692;23.314;2023-03-15T11:48:54;93658.19;;;13.78
24278;BMP280;12394;42.692;23.314;2023-03-15T11:51:27;93660.25;;;14.02
24278;BMP280;12394;42.692;23.314;2023-03-15T11:54:10;93650.31;;;13.97
24278;BMP280;12394;42.692;23.314;2023-03-15T11:59:29;93660.09;;;13.87
24278;BMP280;12394;42.692;23.314;2023-03-15T12:06:59;93658.00;;;13.55
24278;BMP280;12394;42.692;23.314;2023-03-15T12:09:54;93651.88;;;13.40
24278;BMP280;12394;42.692;23.314;2023-03-15T12:15:05;93638.97;;;13.23
24278;BMP280;12394;42.692;23.314;2023-03-15T12:22:34;93635.25;;;13.52
24278;BMP280;12394;42.692;23.314;2023-03-15T12:25:10;93620.31;;;13.21
24278;BMP280;12394;42.692;23.314;2023-03-15T12:27:39;93634.56;;;13.11
24278;BMP280;12394;42.692;23.314;2023-03-15T12:30:22;93645.25;;;13.17
24278;BMP280;12394;42.692;23.314;2023-03-15T12:32:52;93635.84;;;13.07
24278;BMP280;12394;42.692;23.314;2023-03-15T12:35:22;93631.50;;;13.13
24278;BMP280;12394;42.692;23.314;2023-03-15T12:37:50;93629.78;;;12.88
24278;BMP280;12394;42.692;23.314;2023-03-15T12:53:26;93628.69;;;12.45
24278;BMP280;12394;42.692;23.314;2023-03-15T12:55:53;93621.16;;;12.47
24278;BMP280;12394;42.692;23.314;2023-03-15T12:58:25;93620.16;;;12.54
24278;BMP280;12394;42.692;23.314;2023-03-15T13:00:52;93624.41;;;12.61
24278;BMP280;12394;42.692;23.314;2023-03-15T13:03:25;93622.94;;;12.60
24278;BMP280;12394;42.692;23.314;2023-03-15T13:16:45;93598.13;;;12.82
24278;BMP280;12394;42.692;23.314;2023-03-15T13:24:55;93615.09;;;13.49
24278;BMP280;12394;42.692;23.314;2023-03-15T13:30:26;93620.63;;;13.51
24278;BMP280;12394;42.692;23.314;2023-03-15T13:35:43;93614.38;;;13.48
24278;BMP280;12394;42.692;23.314;2023-03-15T13:40:55;93625.63;;;13.67
24278;BMP280;12394;42.692;23.314;2023-03-15T13:43:26;93625.34;;;13.74
24278;BMP280;12394;42.692;23.314;2023-03-15T13:45:55;93619.34;;;13.73
24278;BMP280;12394;42.692;23.314;2023-03-15T13:48:21;93607.38;;;13.72
24278;BMP280;12394;42.692;23.314;2023-03-15T13:50:49;93623.13;;;13.81
24278;BMP280;12394;42.692;23.314;2023-03-15T13:53:30;93613.94;;;13.77
24278;BMP280;12394;42.692;23.314;2023-03-15T13:55:57;93613.34;;;13.64
24278;BMP280;12394;42.692;23.314;2023-03-15T13:58:23;93629.69;;;13.59
24278;BMP280;12394;42.692;23.314;2023-03-15T14:00:55;93643.72;;;13.56
24278;BMP280;12394;42.692;23.314;2023-03-15T14:06:11;93636.25;;;12.65
24278;BMP280;12394;42.692;23.314;2023-03-15T14:08:38;93623.47;;;12.45
24278;BMP280;12394;42.692;23.314;2023-03-15T14:11:16;93631.28;;;12.36
24278;BMP280;12394;42.692;23.314;2023-03-15T14:13:58;93629.72;;;12.17
24278;BMP280;12394;42.692;23.314;2023-03-15T14:16:42;93618.38;;;12.20
24278;BMP280;12394;42.692;23.314;2023-03-15T14:21:44;93617.22;;;12.21
24278;BMP280;12394;42.692;23.314;2023-03-15T14:24:36;93631.03;;;12.43
24278;BMP280;12394;42.692;23.314;2023-03-15T14:27:08;93627.97;;;12.45
24278;BMP280;12394;42.692;23.314;2023-03-15T14:29:51;93614.81;;;12.36
24278;BMP280;12394;42.692;23.314;2023-03-15T14:32:32;93631.03;;;12.43
24278;BMP280;12394;42.692;23.314;2023-03-15T14:35:31;93617.56;;;12.32
24278;BMP280;12394;42.692;23.314;2023-03-15T14:38:06;93615.69;;;12.11
24278;BMP280;12394;42.692;23.314;2023-03-15T14:40:35;93623.28;;;11.96
24278;BMP280;12394;42.692;23.314;2023-03-15T14:43:01;93616.66;;;12.04
24278;BMP280;12394;42.692;23.314;2023-03-15T14:45:27;93595.63;;;11.74
24278;BMP280;12394;42.692;23.314;2023-03-15T14:47:58;93620.19;;;11.89
24278;BMP280;12394;42.692;23.314;2023-03-15T14:50:28;93627.66;;;11.78
24278;BMP280;12394;42.692;23.314;2023-03-15T14:52:56;93604.22;;;11.62
24278;BMP280;12394;42.692;23.314;2023-03-15T14:55:27;93620.59;;;11.53
24278;BMP280;12394;42.692;23.314;2023-03-15T14:57:53;93614.34;;;11.38
24278;BMP280;12394;42.692;23.314;2023-03-15T15:00:19;93620.28;;;11.51
24278;BMP280;12394;42.692;23.314;2023-03-15T15:02:47;93617.44;;;11.58
24278;BMP280;12394;42.692;23.314;2023-03-15T15:05:31;93608.94;;;11.54
24278;BMP280;12394;42.692;23.314;2023-03-15T15:08:08;93624.69;;;11.41
24278;BMP280;12394;42.692;23.314;2023-03-15T15:10:35;93622.59;;;11.36
24278;BMP280;12394;42.692;23.314;2023-03-15T15:13:01;93620.00;;;11.36
24278;BMP280;12394;42.692;23.314;2023-03-15T15:15:28;93616.97;;;11.38
24278;BMP280;12394;42.692;23.314;2023-03-15T15:17:53;93624.94;;;11.34
24278;BMP280;12394;42.692;23.314;2023-03-15T15:20:19;93623.59;;;11.30
24278;BMP280;12394;42.692;23.314;2023-03-15T15:22:45;93628.06;;;11.29
24278;BMP280;12394;42.692;23.314;2023-03-15T15:25:19;93629.44;;;11.34
24278;BMP280;12394;42.692;23.314;2023-03-15T15:27:46;93620.66;;;11.15
24278;BMP280;12394;42.692;23.314;2023-03-15T15:30:18;93628.09;;;11.04
24278;BMP280;12394;42.692;23.314;2023-03-15T15:32:44;93632.53;;;10.94
24278;BMP280;12394;42.692;23.314;2023-03-15T15:35:11;93643.91;;;11.00
24278;BMP280;12394;42.692;23.314;2023-03-15T15:37:39;93624.75;;;10.65
24278;BMP280;12394;42.692;23.314;2023-03-15T15:40:07;93643.81;;;10.79